Sky Glory — DSQP3 — position and weather

sailwx.info

Track history (hours):
 
Tides and Currents Weather Stations Pressure Air Temp Water Temp Dewpoint Dewpoint Depression Visibility Wind Speed Wind Dir Waves Ship Positions

Sky Glory

Last reported at 2018-Feb-20 12:00 UTC. Time now 2018-Feb-20 12:02 UTC.
Position N 34°30' E 134°40'.

Length 101 m; draft 6 m.

Type: Cargo ship. MMSI: 441654000.

Date/timePositionNaut miles runAvg speedWind from/ knotsBaromVisibWave heightAir tempDewpointWater temp
2018-Feb-20 12:00N 34°30' E 134°40'611.5
2018-Feb-20 11:27N 34°28' E 134°33'511.3
2018-Feb-20 10:58N 34°26' E 134°27'8511.2
2018-Feb-20 03:23N 34°03' E 132°48'512.5
2018-Feb-20 03:00N 33°59' E 132°44'612.6
2018-Feb-20 02:30N 33°55' E 132°39'812.0
2018-Feb-20 01:50N 33°49' E 132°32'511.9
2018-Feb-20 01:23N 33°47' E 132°26'611.9
2018-Feb-20 00:55N 33°45' E 132°20'1311.7
2018-Feb-19 23:48N 33°42' E 132°05'411.3
2018-Feb-19 23:29N 33°43' E 132°01'611.0
2018-Feb-19 22:59N 33°44' E 131°54'510.9
2018-Feb-19 22:30N 33°45' E 131°48'611.1
2018-Feb-19 22:00N 33°46' E 131°41'611.2
2018-Feb-19 21:31N 33°47' E 131°35'611.3
2018-Feb-19 21:00N 33°48' E 131°28'611.5
2018-Feb-19 20:30N 33°50' E 131°21'611.9
2018-Feb-19 20:01N 33°51' E 131°15'612.0
2018-Feb-19 19:31N 33°53' E 131°08'612.2
2018-Feb-19 19:00N 33°57' E 131°02'510.4
2018-Feb-19 18:31N 33°56' E 130°56'4 8.2
2018-Feb-19 18:00N 33°57' E 130°51'511.1
2018-Feb-19 17:31N 34°02' E 130°49'611.3
2018-Feb-19 17:01N 34°05' E 130°43'611.3
2018-Feb-19 16:30N 34°09' E 130°37'611.4
2018-Feb-19 16:00N 34°12' E 130°32'611.5
2018-Feb-19 15:30N 34°15' E 130°26'611.5
2018-Feb-19 15:00N 34°19' E 130°21'611.5
2018-Feb-19 14:30N 34°22' E 130°15'611.6
2018-Feb-19 14:00N 34°25' E 130°09'  
2018-Feb-17 05:09N 34°30' E 130°05'211.2
2018-Feb-17 05:00N 34°29' E 130°06'510.8
2018-Feb-17 04:30N 34°25' E 130°11'510.3
2018-Feb-17 04:00N 34°22' E 130°17'510.3
2018-Feb-17 03:30N 34°19' E 130°22'510.6
2018-Feb-17 03:01N 34°16' E 130°27'510.5
2018-Feb-17 02:30N 34°13' E 130°32'510.4
2018-Feb-17 02:00N 34°10' E 130°37'510.3
2018-Feb-17 01:30N 34°07' E 130°42'510.0
2018-Feb-17 01:00N 34°04' E 130°46'510.5
2018-Feb-17 00:30N 33°60' E 130°51'611.4
2018-Feb-17 00:00N 33°55' E 130°54'612.5
2018-Feb-16 23:30N 33°59' E 130°60'611.9
2018-Feb-16 23:00N 33°55' E 131°06'612.0
2018-Feb-16 22:30N 33°52' E 131°12'612.4
2018-Feb-16 22:00N 33°51' E 131°19'612.1
2018-Feb-16 21:30N 33°49' E 131°26'612.1
2018-Feb-16 21:00N 33°48' E 131°33'611.8
2018-Feb-16 20:29N 33°47' E 131°41'611.3
2018-Feb-16 19:59N 33°46' E 131°47'510.6
2018-Feb-16 19:29N 33°45' E 131°54'1411.2
2018-Feb-16 18:15N 33°49' E 132°10'411.7
2018-Feb-16 17:53N 33°50' E 132°15'511.9
2018-Feb-16 17:30N 33°50' E 132°20'712.6
2018-Feb-16 16:57N 33°52' E 132°28'512.2
2018-Feb-16 16:30N 33°54' E 132°35'612.5
2018-Feb-16 16:00N 33°57' E 132°41'7210.4
2018-Feb-16 09:06N 34°26' E 134°00'512.2
2018-Feb-16 08:44N 34°27' E 134°06'512.3
2018-Feb-16 08:21N 34°25' E 134°11'411.7
2018-Feb-16 08:00N 34°25' E 134°16'611.7
2018-Feb-16 07:30N 34°25' E 134°23'611.8
2018-Feb-16 07:00N 34°28' E 134°30'611.8
2018-Feb-16 06:30N 34°30' E 134°36'611.3
2018-Feb-16 06:00N 34°32' E 134°43'611.3
2018-Feb-16 05:30N 34°34' E 134°49'5 9.9
2018-Feb-16 05:00N 34°36' E 134°55'510.0
2018-Feb-16 04:30N 34°38' E 135°00'510.2
2018-Feb-16 04:00N 34°35' E 135°06'611.9
2018-Feb-16 03:30N 34°36' E 135°13'611.8
2018-Feb-16 03:01N 34°37' E 135°20'510.7
2018-Feb-16 02:30N 34°39' E 135°26'0 0.4
2018-Feb-16 02:00N 34°39' E 135°27'0 0.0
2018-Feb-16 01:30N 34°39' E 135°27'0 0.0
2018-Feb-16 01:00N 34°39' E 135°27'0 0.0
2018-Feb-16 00:29N 34°39' E 135°27'0 0.0
2018-Feb-15 23:57N 34°39' E 135°27'0 0.0
2018-Feb-15 23:27N 34°39' E 135°27'0 0.0
2018-Feb-15 23:00N 34°39' E 135°27'0 0.0
2018-Feb-15 22:30N 34°39' E 135°27'0 0.0
2018-Feb-15 21:57N 34°39' E 135°27'0 0.0
2018-Feb-15 21:30N 34°39' E 135°27'0 0.0
2018-Feb-15 20:57N 34°39' E 135°27'0 0.0
2018-Feb-15 20:29N 34°39' E 135°27'0 0.0
2018-Feb-15 20:00N 34°39' E 135°27'0 0.0
2018-Feb-15 19:30N 34°39' E 135°27'0 0.0
2018-Feb-15 19:00N 34°39' E 135°27'0 0.0
2018-Feb-15 18:29N 34°39' E 135°27'0 0.0
2018-Feb-15 18:00N 34°39' E 135°27'0 0.0
2018-Feb-15 17:27N 34°39' E 135°27'0 0.0
2018-Feb-15 17:00N 34°39' E 135°27'0 0.0
2018-Feb-15 16:27N 34°39' E 135°27'0 0.0
2018-Feb-15 16:00N 34°39' E 135°27'0 0.0
2018-Feb-15 15:30N 34°39' E 135°27'0 0.0
2018-Feb-15 14:57N 34°39' E 135°27'0 0.0
2018-Feb-15 14:27N 34°39' E 135°27'0 0.0
2018-Feb-15 14:00N 34°39' E 135°27'0 0.0
2018-Feb-15 13:30N 34°39' E 135°27'0 0.0
2018-Feb-15 13:00N 34°39' E 135°27'0 0.0
2018-Feb-15 12:30N 34°39' E 135°27'0 0.0
2018-Feb-15 12:00N 34°39' E 135°27'0 0.0
2018-Feb-15 11:30N 34°39' E 135°27'0 0.0
2018-Feb-15 11:00N 34°39' E 135°27'0 0.0
2018-Feb-15 10:30N 34°39' E 135°27'0 0.0
2018-Feb-15 09:57N 34°39' E 135°27'0 0.0
2018-Feb-15 09:30N 34°39' E 135°27'0 0.0
2018-Feb-15 09:00N 34°39' E 135°27'0 0.0
2018-Feb-15 08:27N 34°39' E 135°27'0 0.0
2018-Feb-15 08:00N 34°39' E 135°27'0 0.0
2018-Feb-15 07:30N 34°39' E 135°27'2 4.8
2018-Feb-15 07:00N 34°38' E 135°24'5 9.6
2018-Feb-15 06:30N 34°37' E 135°18'510.7
2018-Feb-15 06:00N 34°41' E 135°13'0 0.6
2018-Feb-15 05:30N 34°42' E 135°13'0 0.0
2018-Feb-15 05:00N 34°42' E 135°13'0 0.0
2018-Feb-15 04:30N 34°42' E 135°13'0 0.0
2018-Feb-15 04:00N 34°42' E 135°13'0 0.0
2018-Feb-15 03:30N 34°42' E 135°13'0 0.0
2018-Feb-15 03:00N 34°42' E 135°13'0 0.0
2018-Feb-15 02:30N 34°42' E 135°13'0 0.0
2018-Feb-15 02:00N 34°42' E 135°13'0 0.0
2018-Feb-15 01:30N 34°42' E 135°13'0 0.0
2018-Feb-15 01:00N 34°42' E 135°13'0 0.0
2018-Feb-15 00:30N 34°42' E 135°13'0 0.0
2018-Feb-15 00:00N 34°42' E 135°13'0 0.0
2018-Feb-14 23:30N 34°42' E 135°13'0 0.0
2018-Feb-14 23:00N 34°42' E 135°13'0 0.0
2018-Feb-14 22:27N 34°42' E 135°13'0 0.0
2018-Feb-14 22:00N 34°42' E 135°13'0 0.0
2018-Feb-14 21:30N 34°42' E 135°13'0 0.0
2018-Feb-14 21:00N 34°42' E 135°13'0 0.0
2018-Feb-14 20:30N 34°42' E 135°13'0 0.0
2018-Feb-14 19:59N 34°42' E 135°13'0 0.0
2018-Feb-14 19:30N 34°42' E 135°13'0 0.0
2018-Feb-14 19:00N 34°42' E 135°13'0 0.0
2018-Feb-14 18:30N 34°42' E 135°13'0 0.0
2018-Feb-14 18:00N 34°42' E 135°13'0 0.0
2018-Feb-14 17:30N 34°42' E 135°13'0 0.0
2018-Feb-14 17:00N 34°42' E 135°13'0 0.0
2018-Feb-14 16:27N 34°42' E 135°13'0 0.0
2018-Feb-14 16:00N 34°42' E 135°13'0 0.0
2018-Feb-14 15:30N 34°42' E 135°13'0 0.0
2018-Feb-14 14:57N 34°42' E 135°13'0 0.0
2018-Feb-14 14:30N 34°42' E 135°13'0 0.0
2018-Feb-14 14:00N 34°42' E 135°13'0 0.0
2018-Feb-14 13:29N 34°42' E 135°13'0 0.0
2018-Feb-14 13:00N 34°42' E 135°13'0 0.0
2018-Feb-14 12:27N 34°42' E 135°13'0 0.0
2018-Feb-14 12:00N 34°42' E 135°13'0 0.0
2018-Feb-14 11:30N 34°42' E 135°13'0 0.0
2018-Feb-14 11:00N 34°42' E 135°13'0 0.0
2018-Feb-14 10:30N 34°42' E 135°13'0 0.0
2018-Feb-14 10:00N 34°42' E 135°13'0 0.0
2018-Feb-14 09:30N 34°42' E 135°13'0 0.0
2018-Feb-14 09:00N 34°42' E 135°13'0 0.0
2018-Feb-14 08:30N 34°42' E 135°13'0 0.0
2018-Feb-14 08:00N 34°42' E 135°13'0 0.0
2018-Feb-14 07:30N 34°42' E 135°13'0 0.0
2018-Feb-14 07:00N 34°42' E 135°13'0 0.0
2018-Feb-14 06:30N 34°42' E 135°13'0 0.0
2018-Feb-14 06:00N 34°42' E 135°13'0 0.0
2018-Feb-14 05:30N 34°42' E 135°13'0 0.0
2018-Feb-14 05:00N 34°42' E 135°13'0 0.0
2018-Feb-14 04:30N 34°42' E 135°13'0 0.0
2018-Feb-14 03:59N 34°42' E 135°13'0 0.0
2018-Feb-14 03:27N 34°42' E 135°13'0 0.0
2018-Feb-14 03:00N 34°42' E 135°13'0 0.3
2018-Feb-14 02:30N 34°41' E 135°13'2 4.7
2018-Feb-14 02:00N 34°40' E 135°15'2 4.6
2018-Feb-14 01:30N 34°39' E 135°18'0 0.0
2018-Feb-14 01:00N 34°39' E 135°18'0 0.0
2018-Feb-14 00:30N 34°39' E 135°18'0 0.0
2018-Feb-14 00:00N 34°39' E 135°18'0 0.0
2018-Feb-13 23:30N 34°39' E 135°18'0 0.0
2018-Feb-13 23:00N 34°39' E 135°18'0 0.0
2018-Feb-13 22:30N 34°39' E 135°18'0 0.0
2018-Feb-13 22:00N 34°39' E 135°18'0 0.1
2018-Feb-13 21:30N 34°39' E 135°18'0 0.2
2018-Feb-13 21:00N 34°39' E 135°18'0 0.0
2018-Feb-13 20:30N 34°39' E 135°18'0 0.0
2018-Feb-13 20:00N 34°39' E 135°18'0 0.0
2018-Feb-13 19:30N 34°39' E 135°18'0 0.0
2018-Feb-13 19:00N 34°39' E 135°18'0 0.0
2018-Feb-13 18:30N 34°39' E 135°18'0 0.1
2018-Feb-13 18:00N 34°39' E 135°18'0 0.0
2018-Feb-13 17:30N 34°39' E 135°18'0 0.0
2018-Feb-13 17:00N 34°39' E 135°18'0 0.0
2018-Feb-13 16:30N 34°39' E 135°18'0 0.0
2018-Feb-13 16:00N 34°39' E 135°18'0 0.0
2018-Feb-13 15:30N 34°39' E 135°18'0 0.0
2018-Feb-13 15:00N 34°39' E 135°18'0 0.0
2018-Feb-13 14:30N 34°39' E 135°18'0 0.0
2018-Feb-13 14:00N 34°39' E 135°18'0 0.0
2018-Feb-13 13:30N 34°39' E 135°18'0 0.0
2018-Feb-13 13:00N 34°39' E 135°18'0 0.0
2018-Feb-13 12:30N 34°39' E 135°18'0 0.1
2018-Feb-13 12:01N 34°39' E 135°18'4 7.7
2018-Feb-13 11:30N 34°36' E 135°15'611.6
2018-Feb-13 11:00N 34°35' E 135°08'510.9
2018-Feb-13 10:30N 34°37' E 135°02'5 9.8
2018-Feb-13 10:00N 34°36' E 134°56'611.3
2018-Feb-13 09:30N 34°33' E 134°49'611.8
2018-Feb-13 09:00N 34°31' E 134°43'611.9
2018-Feb-13 08:30N 34°29' E 134°36'611.9
2018-Feb-13 07:59N 34°26' E 134°29'7711.5
2018-Feb-13 01:16N 34°09' E 132°58'1311.3
2018-Feb-13 00:08N 34°01' E 132°46'213.0
2018-Feb-13 00:00N 33°60' E 132°45'713.2
2018-Feb-12 23:30N 33°55' E 132°39'812.6
2018-Feb-12 22:54N 33°50' E 132°33'912.5
2018-Feb-12 22:12N 33°45' E 132°24'512.7
2018-Feb-12 21:49N 33°44' E 132°18'1512.2
2018-Feb-12 20:37N 33°42' E 132°01'112.3
2018-Feb-12 20:30N 33°43' E 131°59'611.8
2018-Feb-12 20:00N 33°44' E 131°52'611.7
2018-Feb-12 19:30N 33°45' E 131°45'611.4
2018-Feb-12 19:00N 33°46' E 131°39'611.5
2018-Feb-12 18:30N 33°47' E 131°32'611.4
2018-Feb-12 18:01N 33°49' E 131°25'611.9
2018-Feb-12 17:29N 33°50' E 131°18'612.1
2018-Feb-12 17:00N 33°51' E 131°11'611.9
2018-Feb-12 16:30N 33°55' E 131°06'611.9
2018-Feb-12 16:01N 33°58' E 130°60'612.6
2018-Feb-12 15:31N 33°54' E 130°54'611.9
2018-Feb-12 15:01N 33°60' E 130°50'611.7
2018-Feb-12 14:31N 34°03' E 130°45'612.5
2018-Feb-12 14:00N 34°06' E 130°38'612.6
2018-Feb-12 13:30N 34°09' E 130°31'612.6
2018-Feb-12 13:00N 34°12' E 130°25'612.7
2018-Feb-12 12:30N 34°15' E 130°18'612.7
2018-Feb-12 12:00N 34°18' E 130°11'612.6
2018-Feb-12 11:30N 34°21' E 130°04'  
Track history (hours):
 
Tides and Currents Weather Stations Pressure Air Temp Water Temp Dewpoint Dewpoint Depression Visibility Wind Speed Wind Dir Waves Ship Positions

Sky Glory

Last reported at 2018-Feb-20 12:00 UTC. Time now 2018-Feb-20 12:02 UTC.
Position N 34°30' E 134°40'.

Length 101 m; draft 6 m.

Type: Cargo ship. MMSI: 441654000.

Date/timePositionNaut miles runAvg speedWind from/ knotsBaromVisibWave heightAir tempDewpointWater temp
2018-Feb-20 12:00N 34°30' E 134°40'611.5
2018-Feb-20 11:27N 34°28' E 134°33'511.3
2018-Feb-20 10:58N 34°26' E 134°27'8511.2
2018-Feb-20 03:23N 34°03' E 132°48'512.5
2018-Feb-20 03:00N 33°59' E 132°44'612.6
2018-Feb-20 02:30N 33°55' E 132°39'812.0
2018-Feb-20 01:50N 33°49' E 132°32'511.9
2018-Feb-20 01:23N 33°47' E 132°26'611.9
2018-Feb-20 00:55N 33°45' E 132°20'1311.7
2018-Feb-19 23:48N 33°42' E 132°05'411.3
2018-Feb-19 23:29N 33°43' E 132°01'611.0
2018-Feb-19 22:59N 33°44' E 131°54'510.9
2018-Feb-19 22:30N 33°45' E 131°48'611.1
2018-Feb-19 22:00N 33°46' E 131°41'611.2
2018-Feb-19 21:31N 33°47' E 131°35'611.3
2018-Feb-19 21:00N 33°48' E 131°28'611.5
2018-Feb-19 20:30N 33°50' E 131°21'611.9
2018-Feb-19 20:01N 33°51' E 131°15'612.0
2018-Feb-19 19:31N 33°53' E 131°08'612.2
2018-Feb-19 19:00N 33°57' E 131°02'510.4
2018-Feb-19 18:31N 33°56' E 130°56'4 8.2
2018-Feb-19 18:00N 33°57' E 130°51'511.1
2018-Feb-19 17:31N 34°02' E 130°49'611.3
2018-Feb-19 17:01N 34°05' E 130°43'611.3
2018-Feb-19 16:30N 34°09' E 130°37'611.4
2018-Feb-19 16:00N 34°12' E 130°32'611.5
2018-Feb-19 15:30N 34°15' E 130°26'611.5
2018-Feb-19 15:00N 34°19' E 130°21'611.5
2018-Feb-19 14:30N 34°22' E 130°15'611.6
2018-Feb-19 14:00N 34°25' E 130°09'  
2018-Feb-17 05:09N 34°30' E 130°05'211.2
2018-Feb-17 05:00N 34°29' E 130°06'510.8
2018-Feb-17 04:30N 34°25' E 130°11'510.3
2018-Feb-17 04:00N 34°22' E 130°17'510.3
2018-Feb-17 03:30N 34°19' E 130°22'510.6
2018-Feb-17 03:01N 34°16' E 130°27'510.5
2018-Feb-17 02:30N 34°13' E 130°32'510.4
2018-Feb-17 02:00N 34°10' E 130°37'510.3
2018-Feb-17 01:30N 34°07' E 130°42'510.0
2018-Feb-17 01:00N 34°04' E 130°46'510.5
2018-Feb-17 00:30N 33°60' E 130°51'611.4
2018-Feb-17 00:00N 33°55' E 130°54'612.5
2018-Feb-16 23:30N 33°59' E 130°60'611.9
2018-Feb-16 23:00N 33°55' E 131°06'612.0
2018-Feb-16 22:30N 33°52' E 131°12'612.4
2018-Feb-16 22:00N 33°51' E 131°19'612.1
2018-Feb-16 21:30N 33°49' E 131°26'612.1
2018-Feb-16 21:00N 33°48' E 131°33'611.8
2018-Feb-16 20:29N 33°47' E 131°41'611.3
2018-Feb-16 19:59N 33°46' E 131°47'510.6
2018-Feb-16 19:29N 33°45' E 131°54'1411.2
2018-Feb-16 18:15N 33°49' E 132°10'411.7
2018-Feb-16 17:53N 33°50' E 132°15'511.9
2018-Feb-16 17:30N 33°50' E 132°20'712.6
2018-Feb-16 16:57N 33°52' E 132°28'512.2
2018-Feb-16 16:30N 33°54' E 132°35'612.5
2018-Feb-16 16:00N 33°57' E 132°41'7210.4
2018-Feb-16 09:06N 34°26' E 134°00'512.2
2018-Feb-16 08:44N 34°27' E 134°06'512.3
2018-Feb-16 08:21N 34°25' E 134°11'411.7
2018-Feb-16 08:00N 34°25' E 134°16'611.7
2018-Feb-16 07:30N 34°25' E 134°23'611.8
2018-Feb-16 07:00N 34°28' E 134°30'611.8
2018-Feb-16 06:30N 34°30' E 134°36'611.3
2018-Feb-16 06:00N 34°32' E 134°43'611.3
2018-Feb-16 05:30N 34°34' E 134°49'5 9.9
2018-Feb-16 05:00N 34°36' E 134°55'510.0
2018-Feb-16 04:30N 34°38' E 135°00'510.2
2018-Feb-16 04:00N 34°35' E 135°06'611.9
2018-Feb-16 03:30N 34°36' E 135°13'611.8
2018-Feb-16 03:01N 34°37' E 135°20'510.7
2018-Feb-16 02:30N 34°39' E 135°26'0 0.4
2018-Feb-16 02:00N 34°39' E 135°27'0 0.0
2018-Feb-16 01:30N 34°39' E 135°27'0 0.0
2018-Feb-16 01:00N 34°39' E 135°27'0 0.0
2018-Feb-16 00:29N 34°39' E 135°27'0 0.0
2018-Feb-15 23:57N 34°39' E 135°27'0 0.0
2018-Feb-15 23:27N 34°39' E 135°27'0 0.0
2018-Feb-15 23:00N 34°39' E 135°27'0 0.0
2018-Feb-15 22:30N 34°39' E 135°27'0 0.0
2018-Feb-15 21:57N 34°39' E 135°27'0 0.0
2018-Feb-15 21:30N 34°39' E 135°27'0 0.0
2018-Feb-15 20:57N 34°39' E 135°27'0 0.0
2018-Feb-15 20:29N 34°39' E 135°27'0 0.0
2018-Feb-15 20:00N 34°39' E 135°27'0 0.0
2018-Feb-15 19:30N 34°39' E 135°27'0 0.0
2018-Feb-15 19:00N 34°39' E 135°27'0 0.0
2018-Feb-15 18:29N 34°39' E 135°27'0 0.0
2018-Feb-15 18:00N 34°39' E 135°27'0 0.0
2018-Feb-15 17:27N 34°39' E 135°27'0 0.0
2018-Feb-15 17:00N 34°39' E 135°27'0 0.0
2018-Feb-15 16:27N 34°39' E 135°27'0 0.0
2018-Feb-15 16:00N 34°39' E 135°27'0 0.0
2018-Feb-15 15:30N 34°39' E 135°27'0 0.0
2018-Feb-15 14:57N 34°39' E 135°27'0 0.0
2018-Feb-15 14:27N 34°39' E 135°27'0 0.0
2018-Feb-15 14:00N 34°39' E 135°27'0 0.0
2018-Feb-15 13:30N 34°39' E 135°27'0 0.0
2018-Feb-15 13:00N 34°39' E 135°27'0 0.0
2018-Feb-15 12:30N 34°39' E 135°27'0 0.0
2018-Feb-15 12:00N 34°39' E 135°27'0 0.0
2018-Feb-15 11:30N 34°39' E 135°27'0 0.0
2018-Feb-15 11:00N 34°39' E 135°27'0 0.0
2018-Feb-15 10:30N 34°39' E 135°27'0 0.0
2018-Feb-15 09:57N 34°39' E 135°27'0 0.0
2018-Feb-15 09:30N 34°39' E 135°27'0 0.0
2018-Feb-15 09:00N 34°39' E 135°27'0 0.0
2018-Feb-15 08:27N 34°39' E 135°27'0 0.0
2018-Feb-15 08:00N 34°39' E 135°27'0 0.0
2018-Feb-15 07:30N 34°39' E 135°27'2 4.8
2018-Feb-15 07:00N 34°38' E 135°24'5 9.6
2018-Feb-15 06:30N 34°37' E 135°18'510.7
2018-Feb-15 06:00N 34°41' E 135°13'0 0.6
2018-Feb-15 05:30N 34°42' E 135°13'0 0.0
2018-Feb-15 05:00N 34°42' E 135°13'0 0.0
2018-Feb-15 04:30N 34°42' E 135°13'0 0.0
2018-Feb-15 04:00N 34°42' E 135°13'0 0.0
2018-Feb-15 03:30N 34°42' E 135°13'0 0.0
2018-Feb-15 03:00N 34°42' E 135°13'0 0.0
2018-Feb-15 02:30N 34°42' E 135°13'0 0.0
2018-Feb-15 02:00N 34°42' E 135°13'0 0.0
2018-Feb-15 01:30N 34°42' E 135°13'0 0.0
2018-Feb-15 01:00N 34°42' E 135°13'0 0.0
2018-Feb-15 00:30N 34°42' E 135°13'0 0.0
2018-Feb-15 00:00N 34°42' E 135°13'0 0.0
2018-Feb-14 23:30N 34°42' E 135°13'0 0.0
2018-Feb-14 23:00N 34°42' E 135°13'0 0.0
2018-Feb-14 22:27N 34°42' E 135°13'0 0.0
2018-Feb-14 22:00N 34°42' E 135°13'0 0.0
2018-Feb-14 21:30N 34°42' E 135°13'0 0.0
2018-Feb-14 21:00N 34°42' E 135°13'0 0.0
2018-Feb-14 20:30N 34°42' E 135°13'0 0.0
2018-Feb-14 19:59N 34°42' E 135°13'0 0.0
2018-Feb-14 19:30N 34°42' E 135°13'0 0.0
2018-Feb-14 19:00N 34°42' E 135°13'0 0.0
2018-Feb-14 18:30N 34°42' E 135°13'0 0.0
2018-Feb-14 18:00N 34°42' E 135°13'0 0.0
2018-Feb-14 17:30N 34°42' E 135°13'0 0.0
2018-Feb-14 17:00N 34°42' E 135°13'0 0.0
2018-Feb-14 16:27N 34°42' E 135°13'0 0.0
2018-Feb-14 16:00N 34°42' E 135°13'0 0.0
2018-Feb-14 15:30N 34°42' E 135°13'0 0.0
2018-Feb-14 14:57N 34°42' E 135°13'0 0.0
2018-Feb-14 14:30N 34°42' E 135°13'0 0.0
2018-Feb-14 14:00N 34°42' E 135°13'0 0.0
2018-Feb-14 13:29N 34°42' E 135°13'0 0.0
2018-Feb-14 13:00N 34°42' E 135°13'0 0.0
2018-Feb-14 12:27N 34°42' E 135°13'0 0.0
2018-Feb-14 12:00N 34°42' E 135°13'0 0.0
2018-Feb-14 11:30N 34°42' E 135°13'0 0.0
2018-Feb-14 11:00N 34°42' E 135°13'0 0.0
2018-Feb-14 10:30N 34°42' E 135°13'0 0.0
2018-Feb-14 10:00N 34°42' E 135°13'0 0.0
2018-Feb-14 09:30N 34°42' E 135°13'0 0.0
2018-Feb-14 09:00N 34°42' E 135°13'0 0.0
2018-Feb-14 08:30N 34°42' E 135°13'0 0.0
2018-Feb-14 08:00N 34°42' E 135°13'0 0.0
2018-Feb-14 07:30N 34°42' E 135°13'0 0.0
2018-Feb-14 07:00N 34°42' E 135°13'0 0.0
2018-Feb-14 06:30N 34°42' E 135°13'0 0.0
2018-Feb-14 06:00N 34°42' E 135°13'0 0.0
2018-Feb-14 05:30N 34°42' E 135°13'0 0.0
2018-Feb-14 05:00N 34°42' E 135°13'0 0.0
2018-Feb-14 04:30N 34°42' E 135°13'0 0.0
2018-Feb-14 03:59N 34°42' E 135°13'0 0.0
2018-Feb-14 03:27N 34°42' E 135°13'0 0.0
2018-Feb-14 03:00N 34°42' E 135°13'0 0.3
2018-Feb-14 02:30N 34°41' E 135°13'2 4.7
2018-Feb-14 02:00N 34°40' E 135°15'2 4.6
2018-Feb-14 01:30N 34°39' E 135°18'0 0.0
2018-Feb-14 01:00N 34°39' E 135°18'0 0.0
2018-Feb-14 00:30N 34°39' E 135°18'0 0.0
2018-Feb-14 00:00N 34°39' E 135°18'0 0.0
2018-Feb-13 23:30N 34°39' E 135°18'0 0.0
2018-Feb-13 23:00N 34°39' E 135°18'0 0.0
2018-Feb-13 22:30N 34°39' E 135°18'0 0.0
2018-Feb-13 22:00N 34°39' E 135°18'0 0.1
2018-Feb-13 21:30N 34°39' E 135°18'0 0.2
2018-Feb-13 21:00N 34°39' E 135°18'0 0.0
2018-Feb-13 20:30N 34°39' E 135°18'0 0.0
2018-Feb-13 20:00N 34°39' E 135°18'0 0.0
2018-Feb-13 19:30N 34°39' E 135°18'0 0.0
2018-Feb-13 19:00N 34°39' E 135°18'0 0.0
2018-Feb-13 18:30N 34°39' E 135°18'0 0.1
2018-Feb-13 18:00N 34°39' E 135°18'0 0.0
2018-Feb-13 17:30N 34°39' E 135°18'0 0.0
2018-Feb-13 17:00N 34°39' E 135°18'0 0.0
2018-Feb-13 16:30N 34°39' E 135°18'0 0.0
2018-Feb-13 16:00N 34°39' E 135°18'0 0.0
2018-Feb-13 15:30N 34°39' E 135°18'0 0.0
2018-Feb-13 15:00N 34°39' E 135°18'0 0.0
2018-Feb-13 14:30N 34°39' E 135°18'0 0.0
2018-Feb-13 14:00N 34°39' E 135°18'0 0.0
2018-Feb-13 13:30N 34°39' E 135°18'0 0.0
2018-Feb-13 13:00N 34°39' E 135°18'0 0.0
2018-Feb-13 12:30N 34°39' E 135°18'0 0.1
2018-Feb-13 12:01N 34°39' E 135°18'4 7.7
2018-Feb-13 11:30N 34°36' E 135°15'611.6
2018-Feb-13 11:00N 34°35' E 135°08'510.9
2018-Feb-13 10:30N 34°37' E 135°02'5 9.8
2018-Feb-13 10:00N 34°36' E 134°56'611.3
2018-Feb-13 09:30N 34°33' E 134°49'611.8
2018-Feb-13 09:00N 34°31' E 134°43'611.9
2018-Feb-13 08:30N 34°29' E 134°36'611.9
2018-Feb-13 07:59N 34°26' E 134°29'7711.5
2018-Feb-13 01:16N 34°09' E 132°58'1311.3
2018-Feb-13 00:08N 34°01' E 132°46'213.0
2018-Feb-13 00:00N 33°60' E 132°45'713.2
2018-Feb-12 23:30N 33°55' E 132°39'812.6
2018-Feb-12 22:54N 33°50' E 132°33'912.5
2018-Feb-12 22:12N 33°45' E 132°24'512.7
2018-Feb-12 21:49N 33°44' E 132°18'1512.2
2018-Feb-12 20:37N 33°42' E 132°01'112.3
2018-Feb-12 20:30N 33°43' E 131°59'611.8
2018-Feb-12 20:00N 33°44' E 131°52'611.7
2018-Feb-12 19:30N 33°45' E 131°45'611.4
2018-Feb-12 19:00N 33°46' E 131°39'611.5
2018-Feb-12 18:30N 33°47' E 131°32'611.4
2018-Feb-12 18:01N 33°49' E 131°25'611.9
2018-Feb-12 17:29N 33°50' E 131°18'612.1
2018-Feb-12 17:00N 33°51' E 131°11'611.9
2018-Feb-12 16:30N 33°55' E 131°06'611.9
2018-Feb-12 16:01N 33°58' E 130°60'612.6
2018-Feb-12 15:31N 33°54' E 130°54'611.9
2018-Feb-12 15:01N 33°60' E 130°50'611.7
2018-Feb-12 14:31N 34°03' E 130°45'612.5
2018-Feb-12 14:00N 34°06' E 130°38'612.6
2018-Feb-12 13:30N 34°09' E 130°31'612.6
2018-Feb-12 13:00N 34°12' E 130°25'612.7
2018-Feb-12 12:30N 34°15' E 130°18'612.7
2018-Feb-12 12:00N 34°18' E 130°11'612.6
2018-Feb-12 11:30N 34°21' E 130°04'  

Dump ship's entire track history